createdAt,value
2019-03-20T00:00:29.107Z,82.65
2019-03-20T00:02:54.915Z,82.69
2019-03-20T00:05:20.699Z,83.05
2019-03-20T00:07:46.476Z,83.98
2019-03-20T00:10:12.361Z,85.13
2019-03-20T00:12:38.247Z,84.63
2019-03-20T00:15:07.735Z,85.16
2019-03-20T00:17:33.532Z,85.72
2019-03-20T00:19:59.318Z,86.23
2019-03-20T00:22:25.090Z,85.56
2019-03-20T00:24:50.871Z,86.29
2019-03-20T00:27:16.662Z,86.21
2019-03-20T00:29:42.439Z,85.88
2019-03-20T00:32:08.334Z,86.58
2019-03-20T00:34:34.114Z,86.37
2019-03-20T00:36:59.904Z,85.65
2019-03-20T00:39:25.773Z,85.92
2019-03-20T00:41:51.554Z,85.97
2019-03-20T00:44:17.327Z,86.35
2019-03-20T00:46:43.124Z,86.43
2019-03-20T00:49:08.901Z,86.73
2019-03-20T00:51:34.692Z,86.84
2019-03-20T00:54:00.467Z,87.44
2019-03-20T00:56:26.255Z,87.21
2019-03-20T00:58:52.037Z,87.19
2019-03-20T01:01:17.819Z,87.40
2019-03-20T01:03:43.603Z,86.94
2019-03-20T01:06:09.403Z,87.05
2019-03-20T01:08:35.183Z,86.78
2019-03-20T01:11:01.000Z,86.56
2019-03-20T01:13:26.780Z,86.31
2019-03-20T01:15:52.561Z,86.36
2019-03-20T01:18:18.379Z,86.16
2019-03-20T01:20:44.166Z,86.11
2019-03-20T01:23:09.952Z,85.93
2019-03-20T01:25:35.743Z,85.90
2019-03-20T01:28:01.583Z,85.61
2019-03-20T01:30:30.633Z,85.67
2019-03-20T01:32:57.339Z,85.61
2019-03-20T01:35:24.000Z,85.60
2019-03-20T01:37:50.223Z,85.62
2019-03-20T01:40:16.006Z,85.36
2019-03-20T01:42:41.800Z,85.50
2019-03-20T01:45:08.080Z,85.29
2019-03-20T01:47:33.983Z,84.83
2019-03-20T01:49:59.760Z,84.93
2019-03-20T01:52:25.566Z,84.83
2019-03-20T01:54:51.348Z,84.87
2019-03-20T01:57:17.149Z,84.84
2019-03-20T01:59:42.938Z,84.93
2019-03-20T02:02:08.719Z,85.10
2019-03-20T02:04:34.513Z,85.24
2019-03-20T02:07:00.343Z,85.20
2019-03-20T02:09:26.111Z,85.11
2019-03-20T02:11:51.897Z,85.10
2019-03-20T02:14:17.689Z,85.23
2019-03-20T02:16:43.479Z,84.77
2019-03-20T02:19:09.285Z,84.85
2019-03-20T02:21:35.081Z,84.80
2019-03-20T02:24:00.922Z,84.52
2019-03-20T02:26:26.709Z,84.74
2019-03-20T02:28:52.509Z,84.87
2019-03-20T02:31:18.357Z,84.63
2019-03-20T02:33:44.201Z,84.23
2019-03-20T02:36:09.981Z,84.14
2019-03-20T02:38:35.781Z,83.72
2019-03-20T02:41:01.575Z,83.60
2019-03-20T02:43:27.463Z,83.26
2019-03-20T02:45:53.258Z,83.21
2019-03-20T02:48:19.050Z,83.30
2019-03-20T02:50:44.854Z,83.24
2019-03-20T02:53:10.631Z,82.69
2019-03-20T02:55:36.525Z,82.70
2019-03-20T02:58:02.314Z,82.52
2019-03-20T03:00:28.108Z,82.57
2019-03-20T03:02:53.887Z,82.32
2019-03-20T03:05:19.677Z,82.17
2019-03-20T03:07:45.462Z,82.17
2019-03-20T03:10:16.438Z,82.00
2019-03-20T03:12:42.210Z,81.94
2019-03-20T03:15:09.400Z,81.95
2019-03-20T03:17:35.198Z,81.79
2019-03-20T03:20:01.227Z,81.80
2019-03-20T03:22:27.005Z,81.79
2019-03-20T03:24:52.787Z,81.86
2019-03-20T03:27:18.582Z,81.87
2019-03-20T03:29:44.365Z,81.88
2019-03-20T03:32:10.162Z,81.87
2019-03-20T03:34:35.953Z,81.94
2019-03-20T03:37:01.738Z,81.54
2019-03-20T03:39:27.523Z,81.50
2019-03-20T03:41:53.427Z,81.52
2019-03-20T03:44:19.212Z,81.66
2019-03-20T03:46:45.105Z,81.67
2019-03-20T03:49:10.885Z,81.49
2019-03-20T03:51:36.690Z,81.29
2019-03-20T03:54:02.473Z,81.27
2019-03-20T03:56:28.260Z,81.42
2019-03-20T03:58:54.041Z,81.40
2019-03-20T04:01:19.835Z,81.48
2019-03-20T04:03:45.614Z,81.64
2019-03-20T04:06:11.409Z,81.52
2019-03-20T04:08:37.196Z,81.45
2019-03-20T04:11:03.004Z,81.69
2019-03-20T04:13:28.785Z,81.61
2019-03-20T04:15:54.566Z,81.93
2019-03-20T04:18:20.372Z,81.62
2019-03-20T04:20:46.151Z,81.74
2019-03-20T04:23:11.942Z,81.75
2019-03-20T04:25:37.730Z,82.36
2019-03-20T04:28:03.522Z,82.13
2019-03-20T04:30:29.312Z,82.08
2019-03-20T04:32:55.111Z,82.68
2019-03-20T04:35:20.894Z,83.01
2019-03-20T04:37:46.699Z,83.51
2019-03-20T04:40:16.280Z,83.31
2019-03-20T04:42:42.081Z,83.27
2019-03-20T04:45:12.789Z,83.34
2019-03-20T04:47:38.773Z,83.30
2019-03-20T04:50:08.365Z,83.16
2019-03-20T04:52:34.159Z,83.38
2019-03-20T04:54:59.942Z,83.57
2019-03-20T04:57:25.740Z,83.49
2019-03-20T04:59:51.524Z,83.63
2019-03-20T05:02:17.301Z,83.83
2019-03-20T05:04:43.098Z,84.10
2019-03-20T05:07:08.884Z,84.01
2019-03-20T05:09:34.672Z,83.82
2019-03-20T05:12:00.467Z,83.91
2019-03-20T05:14:26.267Z,83.94
2019-03-20T05:16:52.051Z,83.97
2019-03-20T05:19:17.848Z,84.37
2019-03-20T05:21:43.631Z,84.22
2019-03-20T05:24:09.428Z,84.31
2019-03-20T05:26:35.217Z,84.13
2019-03-20T05:29:01.027Z,84.25
2019-03-20T05:31:26.809Z,84.44
2019-03-20T05:33:52.607Z,84.16
2019-03-20T05:36:18.387Z,84.13
2019-03-20T05:38:44.271Z,83.84
2019-03-20T05:41:10.051Z,83.62
2019-03-20T05:43:35.846Z,83.29
2019-03-20T05:46:01.629Z,83.36
2019-03-20T05:48:27.459Z,83.29
2019-03-20T05:50:53.231Z,82.96
2019-03-20T05:53:19.023Z,82.99
2019-03-20T05:55:44.858Z,82.82
2019-03-20T05:58:10.638Z,82.84
2019-03-20T06:00:36.433Z,83.02
2019-03-20T06:03:02.418Z,82.79
2019-03-20T06:05:28.239Z,82.88
2019-03-20T06:07:54.017Z,82.79
2019-03-20T06:10:19.814Z,82.95
2019-03-20T06:12:45.603Z,83.09
2019-03-20T06:15:12.101Z,82.90
2019-03-20T06:17:37.894Z,82.76
2019-03-20T06:20:09.595Z,83.01
2019-03-20T06:22:35.388Z,83.00
2019-03-20T06:25:01.218Z,82.88
2019-03-20T06:27:27.005Z,82.96
2019-03-20T06:29:52.792Z,82.95
2019-03-20T06:32:18.581Z,82.73
2019-03-20T06:34:44.377Z,82.53
2019-03-20T06:37:10.166Z,82.37
2019-03-20T06:39:35.957Z,82.36
2019-03-20T06:42:01.748Z,82.30
2019-03-20T06:44:27.533Z,82.23
2019-03-20T06:46:53.330Z,81.94
2019-03-20T06:49:19.112Z,81.79
2019-03-20T06:51:44.921Z,81.52
2019-03-20T06:54:10.703Z,81.25
2019-03-20T06:56:36.509Z,81.17
2019-03-20T06:59:11.950Z,81.24
2019-03-20T07:01:38.549Z,81.10
2019-03-20T07:04:08.141Z,81.43
2019-03-20T07:06:40.706Z,81.38
2019-03-20T07:09:24.899Z,81.57
2019-03-20T07:11:50.696Z,81.76
2019-03-20T07:14:16.479Z,81.67
2019-03-20T07:16:42.281Z,81.48
2019-03-20T07:19:08.079Z,81.74
2019-03-20T07:21:33.876Z,81.80
2019-03-20T07:23:59.654Z,81.89
2019-03-20T07:26:25.453Z,81.73
2019-03-20T07:28:51.237Z,81.79
2019-03-20T07:31:17.223Z,81.99
2019-03-20T07:33:43.011Z,81.86
2019-03-20T07:36:08.998Z,81.83
2019-03-20T07:38:34.806Z,81.79
2019-03-20T07:41:00.603Z,81.81
2019-03-20T07:43:27.104Z,81.83
2019-03-20T07:45:52.989Z,81.89
2019-03-20T07:48:22.446Z,81.71
2019-03-20T07:50:46.475Z,81.62
2019-03-20T07:53:12.281Z,81.37
2019-03-20T07:55:38.064Z,81.17
2019-03-20T07:58:03.983Z,81.03
2019-03-20T08:00:29.761Z,81.04
2019-03-20T08:02:55.563Z,80.43
2019-03-20T08:05:29.120Z,80.10
2019-03-20T08:07:49.046Z,80.06
2019-03-20T08:10:16.330Z,80.18
2019-03-20T08:12:42.120Z,80.32
2019-03-20T08:15:13.905Z,80.10
2019-03-20T08:17:39.709Z,80.10
2019-03-20T08:20:12.310Z,80.32
2019-03-20T08:22:38.105Z,80.56
2019-03-20T08:25:05.284Z,80.48
2019-03-20T08:27:31.072Z,80.72
2019-03-20T08:29:56.876Z,80.63
2019-03-20T08:32:22.659Z,80.58
2019-03-20T08:34:48.454Z,80.79
2019-03-20T08:37:14.246Z,80.46
2019-03-20T08:39:40.041Z,80.96
2019-03-20T08:42:05.823Z,80.36
2019-03-20T08:44:31.621Z,80.22
2019-03-20T08:46:57.403Z,80.15
2019-03-20T08:49:23.200Z,79.87
2019-03-20T08:51:48.979Z,79.92
2019-03-20T08:54:14.775Z,79.84
2019-03-20T08:56:40.556Z,79.86
2019-03-20T08:59:06.349Z,80.27
2019-03-20T09:01:32.135Z,80.14
2019-03-20T09:03:57.929Z,80.20
2019-03-20T09:06:23.732Z,80.07
2019-03-20T09:08:49.525Z,80.07
2019-03-20T09:11:15.306Z,80.29
2019-03-20T09:13:41.106Z,80.18
2019-03-20T09:16:06.888Z,80.58
2019-03-20T09:18:32.701Z,80.42
2019-03-20T09:20:58.490Z,80.50
2019-03-20T09:23:24.277Z,80.46
2019-03-20T09:25:50.081Z,80.32
2019-03-20T09:28:15.866Z,80.36
2019-03-20T09:30:41.661Z,80.12
2019-03-20T09:33:07.450Z,79.87
2019-03-20T09:35:33.348Z,80.00
2019-03-20T09:37:59.134Z,79.96
2019-03-20T09:40:25.737Z,80.24
2019-03-20T09:42:51.533Z,80.00
2019-03-20T09:45:18.431Z,80.00
2019-03-20T09:47:44.229Z,80.35
2019-03-20T09:50:16.202Z,80.35
2019-03-20T09:52:41.995Z,80.69
2019-03-20T09:55:09.894Z,80.69
2019-03-20T09:57:35.693Z,80.76
2019-03-20T10:00:02.903Z,80.63
2019-03-20T10:02:28.689Z,80.43
2019-03-20T10:04:54.481Z,80.43
2019-03-20T10:07:20.263Z,79.97
2019-03-20T10:09:46.076Z,79.96
2019-03-20T10:12:11.861Z,80.42
2019-03-20T10:14:37.649Z,80.36
2019-03-20T10:17:03.444Z,80.26
2019-03-20T10:19:29.250Z,80.67
2019-03-20T10:21:55.059Z,80.61
2019-03-20T10:24:20.845Z,80.80
2019-03-20T10:26:46.650Z,80.68
2019-03-20T10:29:12.434Z,79.87
2019-03-20T10:31:38.238Z,80.57
2019-03-20T10:34:04.038Z,80.30
2019-03-20T10:36:29.852Z,80.64
2019-03-20T10:39:05.988Z,81.02
2019-03-20T10:41:23.348Z,80.88
2019-03-20T10:43:49.129Z,81.01
2019-03-20T10:46:14.931Z,81.25
2019-03-20T10:48:40.719Z,81.10
2019-03-20T10:51:06.518Z,81.61
2019-03-20T10:53:32.340Z,82.01
2019-03-20T10:55:58.101Z,82.59
2019-03-20T10:58:23.893Z,82.91
2019-03-20T11:00:49.716Z,83.83
2019-03-20T11:03:15.536Z,83.83
2019-03-20T11:05:41.295Z,83.90
2019-03-20T11:08:07.086Z,83.71
2019-03-20T11:10:33.086Z,84.17
2019-03-20T11:12:58.877Z,84.34
2019-03-20T11:15:24.865Z,84.48
2019-03-20T11:17:50.675Z,84.59
2019-03-20T11:20:17.459Z,84.72
2019-03-20T11:22:43.257Z,85.01
2019-03-20T11:25:17.663Z,85.01
2019-03-20T11:27:43.474Z,85.36
2019-03-20T11:30:13.064Z,85.13
2019-03-20T11:32:40.048Z,85.05
2019-03-20T11:35:06.070Z,85.05
2019-03-20T11:37:31.887Z,85.26
2019-03-20T11:39:57.671Z,85.02
2019-03-20T11:42:23.467Z,85.43
2019-03-20T11:44:49.245Z,86.71
2019-03-20T11:47:15.139Z,87.19
2019-03-20T11:49:40.958Z,87.43
2019-03-20T11:52:06.746Z,88.02
2019-03-20T11:54:32.537Z,88.70
2019-03-20T11:56:58.487Z,89.23
2019-03-20T11:59:24.296Z,89.23
2019-03-20T12:01:50.068Z,89.41
2019-03-20T12:04:15.865Z,89.58
2019-03-20T12:06:41.642Z,90.06
2019-03-20T12:09:07.641Z,90.46
2019-03-20T12:11:37.440Z,90.67
2019-03-20T12:14:01.188Z,91.01
2019-03-20T12:16:26.973Z,91.01
2019-03-20T12:18:52.790Z,91.15
2019-03-20T12:21:18.561Z,91.28
2019-03-20T12:23:44.366Z,91.52
2019-03-20T12:26:10.150Z,91.60
2019-03-20T12:28:35.962Z,91.57
2019-03-20T12:31:01.733Z,91.66
2019-03-20T12:33:27.534Z,91.82
2019-03-20T12:35:53.321Z,91.68
2019-03-20T12:38:19.125Z,91.81
2019-03-20T12:40:44.904Z,91.30
2019-03-20T12:43:10.706Z,91.10
2019-03-20T12:45:37.488Z,91.18
2019-03-20T12:48:04.977Z,90.60
2019-03-20T12:50:30.782Z,90.70
2019-03-20T12:52:56.761Z,90.70
2019-03-20T12:55:22.567Z,90.70
2019-03-20T12:57:48.351Z,90.62
2019-03-20T13:00:17.155Z,90.50
2019-03-20T13:02:43.052Z,90.72
2019-03-20T13:05:11.158Z,90.55
2019-03-20T13:07:36.957Z,90.38
2019-03-20T13:10:05.775Z,90.25
2019-03-20T13:12:31.667Z,89.75
2019-03-20T13:14:57.464Z,90.08
2019-03-20T13:17:23.267Z,89.96
2019-03-20T13:19:49.069Z,89.80
2019-03-20T13:22:14.858Z,89.88
2019-03-20T13:24:40.659Z,89.68
2019-03-20T13:27:06.447Z,89.55
2019-03-20T13:29:32.240Z,89.56
2019-03-20T13:31:58.020Z,89.82
2019-03-20T13:34:23.854Z,89.89
2019-03-20T13:36:49.637Z,89.73
2019-03-20T13:39:15.422Z,89.87
2019-03-20T13:41:41.219Z,89.50
2019-03-20T13:44:07.004Z,89.13
2019-03-20T13:46:32.800Z,88.93
2019-03-20T13:48:58.631Z,88.95
2019-03-20T13:51:24.428Z,88.80
2019-03-20T13:53:50.222Z,89.00
2019-03-20T13:56:16.011Z,88.96
2019-03-20T13:58:41.802Z,89.03
2019-03-20T14:01:07.590Z,88.75
2019-03-20T14:03:33.372Z,88.96
2019-03-20T14:05:59.173Z,89.29
2019-03-20T14:08:24.958Z,89.59
2019-03-20T14:10:50.989Z,89.88
2019-03-20T14:13:16.856Z,90.10
2019-03-20T14:15:43.319Z,90.28
2019-03-20T14:18:13.614Z,90.22
2019-03-20T14:20:39.412Z,90.16
2019-03-20T14:23:05.215Z,90.05
2019-03-20T14:25:30.999Z,90.16
2019-03-20T14:27:56.808Z,89.89
2019-03-20T14:30:29.853Z,89.63
2019-03-20T14:32:55.665Z,89.71
2019-03-20T14:35:21.435Z,89.62
2019-03-20T14:37:47.329Z,89.65
2019-03-20T14:40:18.900Z,89.63
2019-03-20T14:42:44.706Z,89.58
2019-03-20T14:45:12.491Z,89.59
2019-03-20T14:47:42.096Z,89.65
2019-03-20T14:50:09.796Z,89.73
2019-03-20T14:52:35.605Z,89.59
2019-03-20T14:55:01.488Z,89.48
2019-03-20T14:57:27.288Z,89.37
2019-03-20T14:59:53.081Z,89.37
2019-03-20T15:02:18.890Z,89.79
2019-03-20T15:04:44.667Z,89.69
2019-03-20T15:07:10.468Z,89.74
2019-03-20T15:09:36.250Z,89.72
2019-03-20T15:12:02.053Z,89.84
2019-03-20T15:14:27.845Z,89.82
2019-03-20T15:16:53.625Z,89.84
2019-03-20T15:19:19.443Z,89.77
2019-03-20T15:21:45.221Z,89.96
2019-03-20T15:24:11.027Z,89.68
2019-03-20T15:26:36.813Z,89.85
2019-03-20T15:29:02.809Z,89.77
2019-03-20T15:31:28.603Z,89.76
2019-03-20T15:33:54.405Z,89.77
2019-03-20T15:36:20.193Z,89.67
2019-03-20T15:38:45.998Z,89.53
2019-03-20T15:41:13.918Z,89.67
2019-03-20T15:43:39.481Z,89.54
2019-03-20T15:46:05.255Z,89.79
2019-03-20T15:48:31.066Z,89.92
2019-03-20T15:50:56.863Z,89.70
2019-03-20T15:53:22.656Z,89.31
2019-03-20T15:55:48.444Z,88.95
2019-03-20T15:58:14.242Z,89.01
2019-03-20T16:00:40.029Z,89.19
2019-03-20T16:03:12.191Z,89.33
2019-03-20T16:05:38.084Z,89.71
2019-03-20T16:08:04.075Z,89.49
2019-03-20T16:10:29.967Z,89.69
2019-03-20T16:12:55.747Z,89.63
2019-03-20T16:15:22.447Z,89.56
2019-03-20T16:17:48.258Z,89.99
2019-03-20T16:20:14.648Z,90.06
2019-03-20T16:22:40.451Z,89.96
2019-03-20T16:25:18.122Z,89.96
2019-03-20T16:27:43.913Z,90.44
2019-03-20T16:30:15.077Z,90.55
2019-03-20T16:32:40.867Z,90.48
2019-03-20T16:35:07.968Z,90.23
2019-03-20T16:37:33.760Z,90.78
2019-03-20T16:39:59.552Z,90.82
2019-03-20T16:42:25.342Z,91.07
2019-03-20T16:44:51.146Z,91.34
2019-03-20T16:47:16.942Z,91.38
2019-03-20T16:49:42.760Z,91.60
2019-03-20T16:52:08.545Z,91.85
2019-03-20T16:54:34.346Z,91.91
2019-03-20T16:57:00.145Z,92.03
2019-03-20T16:59:25.934Z,91.75
2019-03-20T17:01:51.715Z,91.75
2019-03-20T17:04:17.526Z,92.28
2019-03-20T17:06:43.356Z,92.38
2019-03-20T17:09:09.147Z,92.19
2019-03-20T17:11:38.526Z,92.37
2019-03-20T17:14:02.851Z,92.44
2019-03-20T17:16:28.699Z,92.44
2019-03-20T17:18:54.491Z,92.58
2019-03-20T17:21:20.296Z,92.75
2019-03-20T17:23:46.083Z,92.75
2019-03-20T17:26:11.883Z,92.74
2019-03-20T17:28:37.684Z,92.63
2019-03-20T17:31:03.485Z,92.63
2019-03-20T17:33:29.266Z,92.37
2019-03-20T17:35:55.062Z,92.42
2019-03-20T17:38:20.852Z,92.26
2019-03-20T17:40:46.646Z,92.12
2019-03-20T17:43:12.439Z,92.52
2019-03-20T17:45:38.254Z,92.49
2019-03-20T17:48:04.164Z,92.67
2019-03-20T17:50:33.747Z,92.62
2019-03-20T17:52:59.936Z,92.48
2019-03-20T17:55:26.034Z,92.96
2019-03-20T17:57:51.843Z,92.99
2019-03-20T18:00:28.103Z,92.99
2019-03-20T18:02:53.928Z,93.17
2019-03-20T18:05:19.701Z,93.17
2019-03-20T18:07:45.501Z,92.75
2019-03-20T18:10:11.282Z,92.60
2019-03-20T18:12:37.087Z,92.57
2019-03-20T18:15:06.574Z,92.33
2019-03-20T18:17:32.381Z,92.20
2019-03-20T18:19:58.173Z,92.63
2019-03-20T18:22:24.029Z,92.79
2019-03-20T18:24:49.770Z,92.74
2019-03-20T18:27:15.572Z,92.55
2019-03-20T18:29:43.303Z,92.33
2019-03-20T18:32:09.061Z,92.55
2019-03-20T18:34:34.882Z,92.71
2019-03-20T18:37:00.683Z,92.13
2019-03-20T18:39:26.466Z,92.32
2019-03-20T18:41:57.697Z,92.10
2019-03-20T18:44:19.966Z,91.97
2019-03-20T18:46:45.772Z,92.27
2019-03-20T18:49:11.551Z,92.42
2019-03-20T18:51:37.365Z,92.22
2019-03-20T18:54:03.551Z,91.98
2019-03-20T18:56:29.432Z,91.94
2019-03-20T18:58:55.227Z,91.76
2019-03-20T19:01:21.018Z,91.78
2019-03-20T19:03:49.829Z,91.83
2019-03-20T19:06:22.100Z,92.03
2019-03-20T19:08:47.912Z,92.26
2019-03-20T19:11:13.779Z,92.45
2019-03-20T19:13:39.571Z,92.22
2019-03-20T19:16:05.365Z,92.33
2019-03-20T19:18:31.183Z,91.98
2019-03-20T19:20:57.008Z,92.18
2019-03-20T19:23:22.797Z,92.05
2019-03-20T19:25:48.584Z,91.75
2019-03-20T19:28:14.402Z,91.90
2019-03-20T19:30:40.170Z,91.87
2019-03-20T19:33:05.973Z,91.93
2019-03-20T19:35:31.903Z,92.23
2019-03-20T19:37:57.698Z,92.23
2019-03-20T19:40:23.484Z,92.07
2019-03-20T19:42:49.318Z,91.85
2019-03-20T19:45:16.104Z,91.90
2019-03-20T19:47:41.892Z,92.12
2019-03-20T19:50:13.127Z,92.12
2019-03-20T19:52:38.929Z,92.12
2019-03-20T19:55:07.024Z,92.12
2019-03-20T19:57:32.828Z,92.11
2019-03-20T19:59:58.625Z,91.99
2019-03-20T20:02:24.409Z,92.09
2019-03-20T20:04:50.236Z,92.14
2019-03-20T20:07:16.021Z,92.27
2019-03-20T20:09:41.816Z,92.28
2019-03-20T20:12:07.605Z,92.22
2019-03-20T20:14:33.399Z,92.48
2019-03-20T20:16:59.199Z,92.10
2019-03-20T20:19:25.014Z,92.36
2019-03-20T20:21:50.804Z,92.75
2019-03-20T20:24:16.600Z,92.65
2019-03-20T20:26:42.384Z,92.83
2019-03-20T20:29:08.185Z,92.70
2019-03-20T20:31:33.988Z,92.74
2019-03-20T20:33:59.782Z,92.60
2019-03-20T20:36:25.578Z,92.76
2019-03-20T20:38:51.368Z,92.43
2019-03-20T20:41:17.162Z,92.74
2019-03-20T20:43:42.946Z,92.46
2019-03-20T20:46:08.740Z,92.54
2019-03-20T20:48:34.523Z,92.64
2019-03-20T20:51:00.327Z,92.35
2019-03-20T20:53:26.110Z,92.47
2019-03-20T20:55:51.919Z,92.16
2019-03-20T20:58:18.011Z,92.50
2019-03-20T21:00:43.817Z,92.65
2019-03-20T21:03:09.603Z,92.65
2019-03-20T21:05:35.416Z,92.67
2019-03-20T21:08:01.241Z,92.46
2019-03-20T21:10:27.040Z,92.50
2019-03-20T21:12:56.798Z,92.45
2019-03-20T21:15:33.146Z,92.00
2019-03-20T21:18:15.073Z,92.00
2019-03-20T21:20:41.395Z,92.33
2019-03-20T21:23:40.083Z,91.80
2019-03-20T21:26:25.018Z,91.80
2019-03-20T21:29:28.287Z,92.04
2019-03-20T21:32:10.218Z,92.04
2019-03-20T21:34:56.453Z,92.55
2019-03-20T21:37:44.653Z,92.45
2019-03-20T21:40:11.947Z,92.45
2019-03-20T21:43:06.598Z,92.49
2019-03-20T21:45:46.820Z,92.49
2019-03-20T21:48:12.629Z,92.79
2019-03-20T21:51:00.607Z,92.79
2019-03-20T21:54:07.245Z,93.08
2019-03-20T21:56:39.878Z,93.08
2019-03-20T21:59:12.507Z,92.95
2019-03-20T22:02:03.534Z,92.95
2019-03-20T22:04:29.327Z,92.92
2019-03-20T22:07:09.253Z,92.37
2019-03-20T22:09:50.909Z,92.70
2019-03-20T22:12:29.853Z,92.58
2019-03-20T22:15:16.339Z,92.58
2019-03-20T22:18:15.168Z,92.67
2019-03-20T22:20:44.757Z,92.64
2019-03-20T22:23:23.448Z,92.87
2019-03-20T22:26:08.276Z,92.88
2019-03-20T22:28:54.847Z,92.65
2019-03-20T22:31:20.633Z,92.65
2019-03-20T22:34:24.126Z,92.94
2019-03-20T22:36:49.914Z,92.55
2019-03-20T22:39:34.640Z,92.55
2019-03-20T22:42:07.034Z,92.71
2019-03-20T22:44:34.442Z,92.73
2019-03-20T22:47:26.617Z,92.90
2019-03-20T22:50:05.514Z,93.12
2019-03-20T22:52:43.947Z,93.03
2019-03-20T22:55:33.622Z,93.03
2019-03-20T22:58:06.010Z,93.03
2019-03-20T23:00:32.305Z,93.48
2019-03-20T23:03:04.430Z,93.48
2019-03-20T23:05:30.244Z,93.13
2019-03-20T23:07:56.026Z,92.97
2019-03-20T23:10:21.820Z,93.48
2019-03-20T23:12:47.608Z,93.59
2019-03-20T23:15:19.557Z,93.50
2019-03-20T23:17:45.346Z,93.37
2019-03-20T23:20:14.662Z,93.24
2019-03-20T23:22:40.752Z,93.29
2019-03-20T23:25:09.663Z,93.91
2019-03-20T23:27:35.462Z,94.23
2019-03-20T23:30:01.597Z,94.23
2019-03-20T23:32:27.388Z,93.93
2019-03-20T23:34:53.179Z,94.19
2019-03-20T23:37:19.047Z,94.00
2019-03-20T23:39:44.840Z,94.41
2019-03-20T23:42:10.625Z,94.30
2019-03-20T23:44:36.423Z,94.27
2019-03-20T23:47:02.215Z,94.27
2019-03-20T23:49:28.011Z,94.27
2019-03-20T23:51:54.205Z,94.80
2019-03-20T23:54:23.860Z,94.48
2019-03-20T23:56:49.632Z,94.48
2019-03-20T23:59:15.436Z,94.52
